• Join FlightAware (Why Join?)
  • Login
  • US Flag 
04:47PM EDT


 

Airport Tracker/Info


-or-


 

Live Flight TrackerFlight Track Log ✈ UAL1630 ✈ 16-Aug-2013 ✈ PANC - KORD

Flight Track Log - Related Links

Times and Time Zones

All times are in EDT time to prevent confusion due to time zone crossing. See the UAL1630 flight status page for this flight to view local times or setup timezone preferences in your user account.

Time Position Orientation Groundspeed Altitude Reporting Facility
EDT Latitude Longitude Course Direction KTS MPH feet Rate Location/Type
02:16AM 61.1800 -150.0040 360° North 120 138  Level FlightAware
02:17AM 61.1890 -150.0090 345° North 135 155 1,860 Level FlightAware
02:17AM 61.2090 -150.0210 344° North 184 212 1,200 2,520 Climbing FlightAware
02:17AM 61.2190 -150.0290 339° North 189 217 1,600 1,800 Climbing FlightAware
02:17AM 61.2260 -150.0380 328° Northwest 199 229 1,800 1,020 Climbing FlightAware
02:18AM 61.2410 -150.0640 320° Northwest 222 255 2,100 1,140 Climbing FlightAware
02:18AM 61.2530 -150.0870 317° Northwest 240 276 2,500 1,500 Climbing FlightAware
02:18AM 61.2720 -150.1200 320° Northwest 260 299 3,000 2,160 Climbing FlightAware
02:19AM 61.2860 -150.1450 319° Northwest 260 299 3,800 2,520 Climbing FlightAware
02:19AM 61.2990 -150.1610 329° Northwest 266 306 4,200 1,980 Climbing FlightAware
02:19AM 61.3130 -150.1670 348° North 269 310 4,600 2,220 Climbing FlightAware
02:19AM 61.3450 -150.1410 21° North 270 311 5,700 2,280 Climbing FlightAware
02:20AM 61.3500 -150.1260 55° Northeast 266 306 6,000 2,460 Climbing FlightAware
02:20AM 61.3530 -150.1160 58° Northeast 264 304 6,200 3,480 Climbing FlightAware
02:20AM 61.3550 -150.0960 78° East 259 298 6,700 3,480 Climbing FlightAware
02:20AM 61.3550 -150.0860 90° East 257 296 6,900 2,460 Climbing FlightAware
02:20AM 61.3510 -150.0280 98° East 255 293 7,900 2,400 Climbing FlightAware
02:21AM 61.3480 -149.9800 97° East 257 296 8,700 2,220 Climbing FlightAware
02:21AM 61.3430 -149.9150 99° East 268 308 9,600 1,920 Climbing FlightAware
02:22AM 61.3370 -149.8310 98° East 281 323 10,600 1,380 Climbing FlightAware
02:22AM 61.3300 -149.7320 98° East 315 362 11,200 960 Climbing FlightAware
02:23AM 61.3220 -149.6270 99° East 345 397 11,700 1,260 Climbing FlightAware
02:23AM 61.3120 -149.4970 99° East 366 421 12,700 1,680 Climbing FlightAware
02:24AM 61.3040 -149.3850 98° East 374 430 13,700 1,740 Climbing FlightAware
02:24AM 61.2940 -149.2550 99° East 386 444 14,700 1,740 Climbing FlightAware
02:25AM 61.2840 -149.1230 99° East 393 452 15,800 1,860 Climbing FlightAware
02:26AM 61.2720 -148.9870 100° East 400 460 17,000 1,800 Climbing FlightAware
02:26AM 61.2520 -148.8520 107° East 403 464 18,000 1,620 Climbing FlightAware
02:27AM 61.2340 -148.7300 107° East 409 471 18,900 1,620 Climbing FlightAware
02:27AM 61.2140 -148.5960 107° East 412 474 19,900 1,500 Climbing FlightAware
02:28AM 61.1930 -148.4570 107° East 423 487 20,700 1,380 Climbing FlightAware
02:29AM 61.1750 -148.3360 107° East 425 489 21,500 1,500 Climbing FlightAware
02:29AM 61.1540 -148.1950 107° East 430 495 22,400 1,380 Climbing FlightAware
02:30AM 61.1320 -148.0520 108° East 432 497 23,200 1,320 Climbing FlightAware
02:30AM 61.1130 -147.9290 108° East 432 497 23,900 1,320 Climbing FlightAware
02:31AM 61.0950 -147.8100 107° East 434 499 24,600 660 Climbing FlightAware
02:32AM 61.0700 -147.6430 107° East 434 499 24,800 120 Climbing FlightAware
02:32AM 61.0510 -147.5180 107° East 434 499 24,800  Level FlightAware
02:33AM 61.0330 -147.3970 107° East 434 499 24,800  Level FlightAware
02:33AM 61.0150 -147.2760 107° East 434 499 24,800  Level FlightAware
02:34AM 60.9910 -147.1140 107° East 434 499 24,800  Level FlightAware
02:35AM 60.9730 -146.9930 107° East 434 499 24,800 2,580 Level FlightAware
02:36AM 60.9000 -146.6500 107° East 460 529 28,500 2,700 Climbing Anchorage Center
02:37AM 60.8667 -146.4000 105° East 460 529 29,800 1,080 Climbing Anchorage Center
02:38AM 60.8167 -146.1500 112° Southeast 450 518 30,700 900 Climbing Anchorage Center
02:39AM 60.7833 -145.9167 106° East 450 518 31,700 900 Climbing Anchorage Center
02:40AM 60.7333 -145.6833 114° Southeast 440 506 32,600 600 Climbing Anchorage Center
02:41AM 60.7000 -145.4333 105° East 440 506 33,000 180 Climbing Anchorage Center
02:42AM 60.6500 -145.2000 114° Southeast 440 506 33,000  Level Anchorage Center
02:43AM 60.6167 -144.9667 106° East 440 506 33,000  Level Anchorage Center
02:44AM 60.5667 -144.7333 113° Southeast 440 506 33,000  Level Anchorage Center
02:45AM 60.5167 -144.5000 113° Southeast 440 506 33,000  Level Anchorage Center
02:46AM 60.4833 -144.2500 105° East 450 518 33,000  Level Anchorage Center
02:47AM 60.4333 -144.0167 113° Southeast 450 518 33,000  Level Anchorage Center
02:48AM 60.3833 -143.7833 113° Southeast 450 518 33,000  Level Anchorage Center
02:49AM 60.3500 -143.5500 106° East 450 518 33,000  Level Anchorage Center
02:50AM 60.3000 -143.3167 113° Southeast 450 518 33,000  Level Anchorage Center
02:51AM 60.2500 -143.0833 113° Southeast 450 518 33,000  Level Anchorage Center
02:52AM 60.2000 -142.8500 113° Southeast 440 506 33,000  Level Anchorage Center
02:53AM 60.1667 -142.6167 106° East 450 518 33,000  Level Anchorage Center
02:54AM 60.1167 -142.4000 115° Southeast 430 495 33,000  Level Anchorage Center
02:55AM 60.0667 -142.1667 113° Southeast 440 506 33,000  Level Anchorage Center
02:56AM 60.0167 -141.9500 115° Southeast 430 495 33,000  Level Anchorage Center
02:57AM 59.9667 -141.7167 113° Southeast 430 495 33,000  Level Anchorage Center
02:58AM 59.9167 -141.5000 115° Southeast 430 495 33,000  Level Anchorage Center
02:59AM 59.8667 -141.2833 115° Southeast 430 495 33,000  Level Anchorage Center
03:00AM 59.8333 -141.0667 107° East 430 495 33,000  Level Anchorage Center
03:01AM 59.7833 -140.8500 115° Southeast 430 495 33,000  Level Anchorage Center
03:02AM 59.7333 -140.6167 113° Southeast 430 495 33,000  Level Anchorage Center
03:03AM 59.6833 -140.4167 116° Southeast 430 495 33,000  Level Anchorage Center
03:04AM 59.6333 -140.2000 114° Southeast 420 483 33,000  Level Anchorage Center
03:05AM 59.5833 -139.9833 114° Southeast 420 483 33,000  Level Anchorage Center
03:06AM 59.5500 -139.8167 111° Southeast 430 495 33,000  Level Anchorage Center
03:07AM 59.4833 -139.5500 116° Southeast 420 483 33,000  Level Anchorage Center
03:08AM 59.4667 -139.3000 97° East 420 483 33,000  Level Anchorage Center
03:09AM 59.4333 -139.0833 107° East 420 483 33,000  Level Anchorage Center
03:10AM 59.4167 -138.8500 98° East 420 483 33,000  Level Anchorage Center
03:11AM 59.3833 -138.6333 107° East 420 483 33,000  Level Anchorage Center
03:12AM 59.3667 -138.4167 98° East 420 483 33,000  Level Anchorage Center
03:13AM 59.3333 -138.2333 110° East 420 483 33,000  Level Anchorage Center
03:14AM 59.3167 -138.0167 98° East 410 472 33,000  Level Anchorage Center
03:15AM 59.2833 -137.8000 107° East 410 472 33,000  Level Anchorage Center
03:16AM 59.2500 -137.5833 107° East 410 472 33,000  Level Anchorage Center
03:17AM 59.2333 -137.3667 98° East 410 472 33,000  Level Anchorage Center
03:18AM 59.2000 -137.1500 107° East 410 472 33,000  Level Anchorage Center
03:19AM 59.1667 -136.9333 107° East 410 472 33,000  Level Anchorage Center
03:20AM 59.1500 -136.7333 99° East 400 460 33,000  Level Anchorage Center
03:21AM 59.1167 -136.5000 105° East 420 483 33,000  Level Anchorage Center
03:22AM 59.0833 -136.2833 107° East 410 472 33,000  Level Anchorage Center
03:23AM 59.0500 -136.0833 108° East 410 472 33,000  Level Anchorage Center
03:24AM 59.0167 -135.8500 105° East 410 472 33,000  Level Anchorage Center
03:25AM 58.9833 -135.6333 107° East 420 483 33,000  Level Anchorage Center
03:26AM 58.9500 -135.4000 105° East 420 483 33,000  Level Anchorage Center
03:27AM 58.9167 -135.1833 107° East 420 483 33,000  Level Anchorage Center
03:28AM 58.8833 -134.9667 106° East 420 483 33,000  Level Anchorage Center
03:29AM 58.8500 -134.7500 106° East 410 472 33,000  Level Anchorage Center
03:30AM 58.8167 -134.5333 106° East 410 472 33,000  Level Anchorage Center
03:31AM 58.7833 -134.3333 108° East 410 472 33,000  Level Anchorage Center
03:32AM 58.7500 -134.1167 106° East 410 472 33,000  Level Anchorage Center
03:33AM 58.7167 -133.9000 106° East 410 472 33,000  Level Anchorage Center
03:35AM 58.6636 -133.4970 108° East  Level FlightAware Approximate
03:42AM 58.3891 -131.9263 108° East  Level FlightAware Approximate
03:43AM 58.3483 -131.7040 109° East  Level FlightAware Approximate
03:44AM 58.3070 -131.4822 110° East  Level FlightAware Approximate
03:45AM 58.2651 -131.2611 110° East  Level FlightAware Approximate
03:46AM 58.2228 -131.0406 110° East  Level FlightAware Approximate
03:47AM 58.1801 -130.8206 110° East  Level FlightAware Approximate
03:48AM 58.1371 -130.6011 110° East  Level FlightAware Approximate
03:49AM 58.0936 -130.3822 110° East  Level FlightAware Approximate
03:50AM 58.0498 -130.1638 111° Southeast  Level FlightAware Approximate
03:51AM 58.0061 -129.9455 110° East  Level FlightAware Approximate
03:52AM 57.9636 -129.7267 110° East  Level FlightAware Approximate
03:53AM 57.9207 -129.5084 110° East  Level FlightAware Approximate
03:54AM 57.8775 -129.2907 110° East  Level FlightAware Approximate
03:55AM 57.8338 -129.0735 111° Southeast  Level FlightAware Approximate
03:56AM 57.7898 -128.8568 111° Southeast  Level FlightAware Approximate
03:57AM 57.7454 -128.6406 111° Southeast  Level FlightAware Approximate
03:58AM 57.7007 -128.4250 111° Southeast  Level FlightAware Approximate
03:59AM 57.6556 -128.2099 111° Southeast  Level FlightAware Approximate
04:00AM 57.6077 -127.9972 113° Southeast  Level FlightAware Approximate
04:01AM 57.5591 -127.7853 113° Southeast  Level FlightAware Approximate
04:02AM 57.5101 -127.5740 113° Southeast  Level FlightAware Approximate
04:03AM 57.4608 -127.3633 113° Southeast  Level FlightAware Approximate
04:04AM 57.4112 -127.1531 114° Southeast  Level FlightAware Approximate
04:05AM 57.3612 -126.9435 114° Southeast  Level FlightAware Approximate
04:06AM 57.3108 -126.7345 114° Southeast  Level FlightAware Approximate
04:07AM 57.2601 -126.5260 114° Southeast  Level FlightAware Approximate
04:08AM 57.2096 -126.3177 114° Southeast  Level FlightAware Approximate
04:09AM 57.1593 -126.1095 114° Southeast  Level FlightAware Approximate
04:10AM 57.1087 -125.9018 114° Southeast  Level FlightAware Approximate
04:11AM 57.0578 -125.6947 114° Southeast  Level FlightAware Approximate
04:12AM 57.0065 -125.4882 114° Southeast  Level FlightAware Approximate
04:12AM 56.9500 -125.4000 115° Southeast 500 575 33,000  Level Edmonton Center
04:13AM 56.9549 -125.2822 115° Southeast  Level FlightAware Approximate
04:13AM 56.9000 -125.1667 111° Southeast 500 575 33,000  Level Edmonton Center
04:14AM 56.9029 -125.0768 115° Southeast  Level FlightAware Approximate
04:14AM 56.8333 -124.9167 116° Southeast 500 575 33,000  Level Edmonton Center
04:15AM 56.8511 -124.8715 115° Southeast  Level FlightAware Approximate
04:16AM 56.7994 -124.6665 115° Southeast  Level FlightAware Approximate
04:17AM 56.7472 -124.4621 115° Southeast  Level FlightAware Approximate
04:18AM 56.6948 -124.2583 115° Southeast  Level FlightAware Approximate
04:20AM 56.4900 -123.4380 116° Southeast 508 585 33,000  Level FlightAware
04:21AM 56.4570 -123.3170 116° Southeast 508 585 33,000  Level FlightAware
04:22AM 56.4240 -123.1940 116° Southeast 508 585 33,000  Level FlightAware
04:22AM 56.3820 -123.0420 116° Southeast 509 586 33,000  Level FlightAware
04:23AM 56.3460 -122.9130 117° Southeast 509 586 33,000  Level FlightAware
04:23AM 56.3130 -122.7930 116° Southeast 510 587 33,000  Level FlightAware
04:24AM 56.2760 -122.6590 116° Southeast 510 587 33,000  Level FlightAware
04:25AM 56.2350 -122.5120 117° Southeast 509 586 33,000  Level FlightAware
04:25AM 56.1940 -122.3710 118° Southeast 508 585 33,000  Level FlightAware
04:26AM 56.1610 -122.2560 117° Southeast 508 585 33,000  Level FlightAware
04:26AM 56.1280 -122.1410 117° Southeast 508 585 33,000  Level FlightAware
04:27AM 56.0960 -122.0260 116° Southeast 508 585 33,000  Level FlightAware
04:28AM 56.0630 -121.9110 117° Southeast 508 585 33,000  Level FlightAware
04:28AM 56.0300 -121.7970 117° Southeast 508 585 33,000  Level FlightAware
04:29AM 55.9980 -121.6820 116° Southeast 508 585 33,000  Level FlightAware
04:29AM 55.9650 -121.5680 117° Southeast 508 585 33,000  Level FlightAware
04:30AM 55.9320 -121.4500 116° Southeast 508 585 33,000  Level FlightAware
04:31AM 55.8990 -121.3360 117° Southeast 508 585 33,000  Level FlightAware
04:31AM 55.8650 -121.2180 117° Southeast 508 585 33,000  Level FlightAware
04:32AM 55.8330 -121.1040 117° Southeast 508 585 33,000  Level FlightAware
04:32AM 55.8000 -120.9900 117° Southeast 508 585 33,000  Level FlightAware
04:33AM 55.7670 -120.8760 117° Southeast 508 585 33,000  Level FlightAware
04:34AM 55.7350 -120.7620 116° Southeast 508 585 33,000  Level FlightAware
04:34AM 55.7010 -120.6450 117° Southeast 508 585 33,000  Level FlightAware
04:35AM 55.6670 -120.5290 117° Southeast 508 585 33,000  Level FlightAware
04:36AM 55.4333 -119.9667 117° Southeast 500 575 33,000  Level Edmonton Center
04:37AM 55.3667 -119.7500 118° Southeast 500 575 33,000  Level Edmonton Center
04:38AM 55.3000 -119.5500 120° Southeast 490 564 33,000  Level Edmonton Center
04:39AM 55.2333 -119.3333 118° Southeast 490 564 33,000  Level Edmonton Center
04:40AM 55.1500 -119.1000 122° Southeast 490 564 33,000  Level Edmonton Center
04:41AM 55.0667 -118.8833 124° Southeast 490 564 33,000  Level Edmonton Center
04:42AM 55.0167 -118.6833 113° Southeast 490 564 33,000  Level Edmonton Center
04:43AM 54.9333 -118.4833 126° Southeast 480 552 33,000  Level Edmonton Center
04:44AM 54.8667 -118.2667 118° Southeast 480 552 33,000  Level Edmonton Center
04:45AM 54.7833 -118.0667 126° Southeast 480 552 33,000  Level Edmonton Center
04:46AM 54.7333 -117.8667 113° Southeast 480 552 33,000  Level Edmonton Center
04:47AM 54.6667 -117.7000 125° Southeast 480 552 33,000  Level Edmonton Center
04:48AM 54.5833 -117.5000 126° Southeast 480 552 33,000  Level Edmonton Center
04:49AM 54.5167 -117.3000 120° Southeast 480 552 33,000  Level Edmonton Center
04:50AM 54.4333 -117.1000 126° Southeast 480 552 33,000  Level Edmonton Center
04:51AM 54.3667 -116.9000 120° Southeast 480 552 33,000  Level Edmonton Center
04:52AM 54.2833 -116.7000 125° Southeast 490 564 33,000  Level Edmonton Center
04:53AM 54.2167 -116.5000 120° Southeast 490 564 33,000  Level Edmonton Center
04:54AM 54.1333 -116.3000 125° Southeast 490 564 33,000  Level Edmonton Center
05:00AM 53.7330 -115.1860 125° Southeast 493 567 33,000  Level FlightAware
05:01AM 53.6810 -115.0530 123° Southeast 490 564 33,000  Level FlightAware
05:01AM 53.6290 -114.9280 125° Southeast 492 566 33,000  Level FlightAware
05:02AM 53.5720 -114.7910 125° Southeast 492 566 33,000  Level FlightAware
05:03AM 53.5360 -114.7030 125° Southeast 493 567 33,000  Level FlightAware
05:03AM 53.4920 -114.5960 125° Southeast 494 568 33,000  Level FlightAware
05:04AM 53.4420 -114.4770 125° Southeast 495 570 33,000  Level FlightAware
05:04AM 53.3890 -114.3490 125° Southeast 499 574 33,000  Level FlightAware
05:05AM 53.3490 -114.2540 125° Southeast 500 575 33,000  Level FlightAware
05:06AM 53.3020 -114.1420 125° Southeast 499 574 33,000  Level FlightAware
05:06AM 53.2490 -114.0170 125° Southeast 498 573 33,000  Level FlightAware
05:07AM 53.2140 -113.9330 125° Southeast 498 573 33,000  Level FlightAware
05:07AM 53.1670 -113.8160 124° Southeast 499 574 33,000  Level FlightAware
05:08AM 53.1170 -113.6800 121° Southeast 497 572 33,000  Level FlightAware
05:08AM 53.0820 -113.5860 122° Southeast 498 573 33,000  Level FlightAware
05:09AM 53.0390 -113.4690 121° Southeast 497 572 33,000  Level FlightAware
05:10AM 52.9970 -113.3570 122° Southeast 493 567 33,000  Level FlightAware
05:10AM 52.9540 -113.2440 122° Southeast 493 567 33,000  Level FlightAware
05:11AM 52.9110 -113.1280 122° Southeast 493 567 33,000  Level FlightAware
05:11AM 52.8680 -113.0140 122° Southeast 491 565 33,000  Level FlightAware
05:12AM 52.8260 -112.9030 122° Southeast 491 565 33,000  Level FlightAware
05:13AM 52.7830 -112.7910 122° Southeast 491 565 33,000  Level FlightAware
05:13AM 52.7450 -112.6910 122° Southeast 491 565 33,000  Level FlightAware
05:14AM 52.6850 -112.5350 122° Southeast 489 563 33,000  Level FlightAware
05:14AM 52.6490 -112.4430 123° Southeast 489 563 33,000  Level FlightAware
05:15AM 52.6060 -112.3310 122° Southeast 490 564 33,000  Level FlightAware
05:16AM 52.5570 -112.2060 123° Southeast 490 564 33,000  Level FlightAware
05:16AM 52.5130 -112.0940 123° Southeast 490 564 33,000  Level FlightAware
05:17AM 52.4760 -111.9990 123° Southeast 490 564 33,000  Level FlightAware
05:17AM 52.4320 -111.8870 123° Southeast 490 564 33,000  Level FlightAware
05:18AM 52.3890 -111.7790 123° Southeast 490 564 33,000  Level FlightAware
05:19AM 52.3380 -111.6520 123° Southeast 496 571 33,000  Level FlightAware
05:19AM 52.3020 -111.5620 123° Southeast 496 571 33,000  Level FlightAware
05:20AM 52.2360 -111.3980 123° Southeast 496 571 33,000  Level FlightAware
05:21AM 52.1890 -111.2820 123° Southeast 497 572 33,000  Level FlightAware
05:21AM 52.1420 -111.1670 124° Southeast 497 572 33,000  Level FlightAware
05:22AM 52.1020 -111.0670 123° Southeast 497 572 33,000  Level FlightAware
05:22AM 52.0540 -110.9520 124° Southeast 498 573 33,000  Level FlightAware
05:23AM 52.0140 -110.8510 123° Southeast 498 573 33,000  Level FlightAware
05:24AM 51.9760 -110.7550 123° Southeast 498 573 33,000  Level FlightAware
05:24AM 51.9270 -110.6410 125° Southeast 498 573 33,000  Level FlightAware
05:25AM 51.8770 -110.5200 124° Southeast 498 573 33,000 60 Level FlightAware
05:25AM 51.8230 -110.3950 125° Southeast 501 577 33,100 720 Climbing FlightAware
05:26AM 51.7700 -110.2690 124° Southeast 500 575 33,900 1,020 Climbing FlightAware
05:27AM 51.7220 -110.1550 124° Southeast 497 572 34,400 720 Climbing FlightAware
05:27AM 51.6830 -110.0630 124° Southeast 498 573 34,700 540 Climbing FlightAware
05:28AM 51.6400 -109.9510 122° Southeast 511 588 35,000 180 Climbing FlightAware
05:28AM 51.5970 -109.8240 119° Southeast 513 590 35,000  Level FlightAware
05:29AM 51.5490 -109.6790 118° Southeast 514 592 35,000  Level FlightAware
05:30AM 51.5150 -109.5760 118° Southeast 514 592 35,000  Level FlightAware
05:30AM 51.4830 -109.4780 118° Southeast 514 592 35,000  Level FlightAware
05:31AM 51.4480 -109.3720 118° Southeast 514 592 35,000  Level FlightAware
05:32AM 51.4130 -109.2690 119° Southeast 514 592 35,000  Level FlightAware
05:32AM 51.3540 -109.0970 119° Southeast 511 588 35,000  Level FlightAware
05:33AM 51.3200 -108.9950 118° Southeast 511 588 35,000  Level FlightAware
05:33AM 51.2860 -108.8930 118° Southeast 511 588 35,000  Level FlightAware
05:34AM 51.2520 -108.7910 118° Southeast 511 588 35,000  Level FlightAware
05:36AM 51.0880 -108.3340 120° Southeast 512 589 35,000  Level FlightAware
05:36AM 51.0510 -108.2290 119° Southeast 511 588 35,000  Level FlightAware
05:37AM 51.0040 -108.0980 120° Southeast 510 587 35,000  Level FlightAware
05:38AM 50.9740 -108.0130 119° Southeast 510 587 35,000  Level FlightAware
05:38AM 50.9260 -107.8780 119° Southeast 507 583 35,000  Level FlightAware
05:39AM 50.8850 -107.7650 120° Southeast 506 582 35,000  Level FlightAware
05:39AM 50.8460 -107.6580 120° Southeast 505 581 35,000  Level FlightAware
05:40AM 50.8030 -107.5380 120° Southeast 504 580 35,000  Level FlightAware
05:41AM 50.7630 -107.4290 120° Southeast 502 578 35,000  Level FlightAware
05:41AM 50.7330 -107.3460 120° Southeast 500 575 35,000  Level FlightAware
05:42AM 50.6810 -107.2060 120° Southeast 501 577 35,000  Level FlightAware
05:42AM 50.6360 -107.0840 120° Southeast 506 582 35,000  Level FlightAware
05:43AM 50.5990 -106.9840 120° Southeast 506 582 35,000  Level FlightAware
05:43AM 50.5680 -106.9010 120° Southeast 505 581 35,000  Level FlightAware
05:44AM 50.5160 -106.7600 120° Southeast 506 582 35,000  Level FlightAware
05:45AM 50.4710 -106.6410 121° Southeast 505 581 35,000  Level FlightAware
05:45AM 50.4250 -106.5210 121° Southeast 505 581 35,000  Level FlightAware
05:46AM 50.3780 -106.3970 121° Southeast 504 580 35,000  Level FlightAware
05:47AM 50.3340 -106.2800 120° Southeast 504 580 35,000  Level FlightAware
05:47AM 50.2930 -106.1720 121° Southeast 503 579 35,000  Level FlightAware
05:48AM 50.2520 -106.0660 121° Southeast 501 577 35,000  Level FlightAware
05:48AM 50.2120 -105.9630 121° Southeast 501 577 35,000  Level FlightAware
05:49AM 50.1650 -105.8410 121° Southeast 501 577 35,000  Level FlightAware
05:50AM 50.1250 -105.7390 121° Southeast 500 575 35,000  Level FlightAware
05:50AM 50.0710 -105.5990 121° Southeast 501 577 35,000  Level FlightAware
05:51AM 50.0290 -105.4930 122° Southeast 502 578 35,000  Level FlightAware
05:51AM 49.9800 -105.3700 122° Southeast 502 578 35,000  Level FlightAware
05:52AM 49.9410 -105.2710 121° Southeast 502 578 35,000  Level FlightAware
05:53AM 49.9020 -105.1710 121° Southeast 503 579 35,000  Level FlightAware
05:53AM 49.8610 -105.0700 122° Southeast 503 579 35,000  Level FlightAware
05:54AM 49.8070 -104.9340 122° Southeast 503 579 35,000  Level FlightAware
05:54AM 49.7610 -104.8200 122° Southeast 503 579 35,000  Level FlightAware
05:55AM 49.7210 -104.7210 122° Southeast 501 577 35,000  Level FlightAware
05:56AM 49.6620 -104.5760 122° Southeast 501 577 35,000  Level FlightAware
05:57AM 49.6240 -104.4830 122° Southeast 501 577 35,000  Level FlightAware
05:57AM 49.5850 -104.3870 122° Southeast 501 577 35,000  Level FlightAware
05:58AM 49.5480 -104.2950 122° Southeast 501 577 35,000  Level FlightAware
05:58AM 49.5090 -104.1990 122° Southeast 501 577 35,000  Level FlightAware
05:59AM 49.4710 -104.1040 122° Southeast 501 577 35,000  Level FlightAware
06:00AM 49.4330 -104.0120 122° Southeast 501 577 35,000  Level FlightAware
06:00AM 49.3940 -103.9170 122° Southeast 501 577 35,000  Level FlightAware
06:01AM 49.3570 -103.8240 121° Southeast 501 577 35,000  Level FlightAware
06:01AM 49.3190 -103.7320 122° Southeast 501 577 35,000  Level FlightAware
06:02AM 49.2810 -103.6400 122° Southeast 501 577 35,000  Level FlightAware
06:03AM 49.2440 -103.5480 122° Southeast 501 577 35,000  Level FlightAware
06:03AM 49.2060 -103.4560 122° Southeast 501 577 35,000  Level FlightAware
06:04AM 49.1690 -103.3640 122° Southeast 501 577 35,000  Level FlightAware
06:04AM 49.1300 -103.2690 122° Southeast 501 577 35,000  Level FlightAware
06:05AM 49.0920 -103.1770 122° Southeast 501 577 35,000  Level FlightAware
06:06AM 48.9175 -102.7503 122° Southeast 512 589 35,000  Level Minneapolis Center
06:07AM 48.8544 -102.5600 117° Southeast 508 585 35,000 -60 Level Minneapolis Center
06:08AM 48.7917 -102.3703 117° Southeast 505 581 34,900  Descending Minneapolis Center
06:09AM 48.7167 -102.2167 126° Southeast 500 575 35,000  Climbing Winnipeg Center
06:10AM 48.6667 -102.0333 112° Southeast 500 575 35,000  Level Winnipeg Center
06:11AM 48.6000 -101.8500 119° Southeast 500 575 35,000  Level Winnipeg Center
06:17AM 48.2300 -100.7260 119° Southeast 498 573 35,000  Level FlightAware
06:17AM 48.1970 -100.6290 117° Southeast 498 573 35,000  Level FlightAware
06:18AM 48.1560 -100.5090 117° Southeast 498 573 35,000  Level FlightAware
06:19AM 48.1240 -100.4150 117° Southeast 498 573 35,000  Level FlightAware
06:19AM 48.0920 -100.3210 117° Southeast 498 573 35,000  Level FlightAware
06:20AM 48.0600 -100.2270 117° Southeast 498 573 35,000  Level FlightAware
06:21AM 48.0280 -100.1330 117° Southeast 498 573 35,000  Level FlightAware
06:21AM 47.9410 -99.9200 121° Southeast 498 573 35,000  Level FlightAware
06:22AM 47.9070 -99.8240 118° Southeast 498 573 35,000  Level FlightAware
06:23AM 47.8730 -99.7310 119° Southeast 498 573 35,000  Level FlightAware
06:23AM 47.8400 -99.6390 118° Southeast 498 573 35,000  Level FlightAware
06:24AM 47.8070 -99.5460 118° Southeast 498 573 35,000  Level FlightAware
06:24AM 47.7730 -99.4510 118° Southeast 498 573 35,000  Level FlightAware
06:25AM 47.7400 -99.3580 118° Southeast 498 573 35,000  Level FlightAware
06:26AM 47.7070 -99.2660 118° Southeast 498 573 35,000  Level FlightAware
06:26AM 47.6730 -99.1710 118° Southeast 498 573 35,000  Level FlightAware
06:27AM 47.6400 -99.0780 118° Southeast 498 573 35,000  Level FlightAware
06:27AM 47.6070 -98.9860 118° Southeast 498 573 35,000  Level FlightAware
06:28AM 47.5740 -98.8940 118° Southeast 498 573 35,000  Level FlightAware
06:29AM 47.5400 -98.8010 118° Southeast 498 573 35,000  Level FlightAware
06:29AM 47.5070 -98.7090 118° Southeast 498 573 35,000  Level FlightAware
06:30AM 47.4740 -98.6170 118° Southeast 498 573 35,000  Level FlightAware
06:30AM 47.4410 -98.5250 118° Southeast 498 573 35,000  Level FlightAware
06:34AM 47.0860 -97.6770 121° Southeast 493 567 35,000  Level FlightAware
06:35AM 47.0430 -97.5690 120° Southeast 493 567 35,000  Level FlightAware
06:35AM 46.9880 -97.4330 121° Southeast 491 565 35,000  Level FlightAware
06:36AM 46.9490 -97.3350 120° Southeast 491 565 35,000  Level FlightAware
06:37AM 46.8990 -97.2100 120° Southeast 490 564 35,000  Level FlightAware
06:37AM 46.8520 -97.0950 121° Southeast 490 564 35,000  Level FlightAware
06:38AM 46.8140 -97.0000 120° Southeast 489 563 35,000  Level FlightAware
06:38AM 46.7690 -96.8920 121° Southeast 487 560 35,000  Level FlightAware
06:39AM 46.7190 -96.7970 127° Southeast 488 562 35,000  Level FlightAware
06:40AM 46.6710 -96.7210 133° Southeast 487 560 35,000  Level FlightAware
06:40AM 46.6180 -96.6360 132° Southeast 487 560 35,000  Level FlightAware
06:41AM 46.5610 -96.5450 132° Southeast 486 559 35,000  Level FlightAware
06:41AM 46.5060 -96.4580 133° Southeast 486 559 35,000  Level FlightAware
06:42AM 46.4580 -96.3830 133° Southeast 486 559 35,000  Level FlightAware
06:43AM 46.4020 -96.2950 133° Southeast 488 562 35,000  Level FlightAware
06:43AM 46.3470 -96.2080 132° Southeast 489 563 35,000  Level FlightAware
06:44AM 46.2910 -96.1210 133° Southeast 489 563 35,000  Level FlightAware
06:44AM 46.2430 -96.0460 133° Southeast 490 564 35,000  Level FlightAware
06:45AM 46.1870 -95.9580 133° Southeast 491 565 35,000  Level FlightAware
06:45AM 46.1310 -95.8720 133° Southeast 493 567 35,000  Level FlightAware
06:46AM 46.0840 -95.7990 133° Southeast 493 567 35,000  Level FlightAware
06:47AM 46.0250 -95.7080 133° Southeast 493 567 35,000  Level FlightAware
06:47AM 45.9690 -95.6230 133° Southeast 493 567 35,000  Level FlightAware
06:48AM 45.9120 -95.5350 133° Southeast 493 567 35,000  Level FlightAware
06:48AM 45.8590 -95.4550 134° Southeast 492 566 35,000  Level FlightAware
06:49AM 45.8050 -95.3710 133° Southeast 491 565 35,000  Level FlightAware
06:50AM 45.7550 -95.2960 134° Southeast 490 564 35,000  Level FlightAware
06:50AM 45.6940 -95.2050 134° Southeast 490 564 35,000  Level FlightAware
06:51AM 45.6450 -95.1310 133° Southeast 489 563 35,000  Level FlightAware
06:51AM 45.5860 -95.0410 133° Southeast 489 563 35,000  Level FlightAware
06:52AM 45.5360 -94.9660 134° Southeast 488 562 35,000  Level FlightAware
06:52AM 45.4790 -94.8820 134° Southeast 488 562 35,000  Level FlightAware
06:53AM 45.4240 -94.8000 134° Southeast 488 562 35,000  Level FlightAware
06:54AM 45.3740 -94.7260 134° Southeast 489 563 35,000  Level FlightAware
06:54AM 45.3110 -94.6320 134° Southeast 490 564 35,000  Level FlightAware
06:55AM 45.2610 -94.5580 134° Southeast 488 562 35,000  Level FlightAware
06:55AM 45.2020 -94.4710 134° Southeast 488 562 35,000  Level FlightAware
06:56AM 45.1520 -94.3980 134° Southeast 487 560 35,000  Level FlightAware
06:57AM 45.0960 -94.3170 134° Southeast 486 559 35,000  Level FlightAware
06:57AM 45.0390 -94.2320 133° Southeast 485 558 35,000  Level FlightAware
06:58AM 44.9840 -94.1520 134° Southeast 485 558 35,000  Level FlightAware
06:58AM 44.9330 -94.0790 135° Southeast 485 558 35,000  Level FlightAware
06:59AM 44.8770 -93.9980 134° Southeast 485 558 35,000  Level FlightAware
06:59AM 44.8210 -93.9160 134° Southeast 484 557 35,000  Level FlightAware
07:00AM 44.7700 -93.8440 135° Southeast 484 557 35,000  Level FlightAware
07:01AM 44.7160 -93.7670 135° Southeast 483 556 35,000  Level FlightAware
07:01AM 44.6600 -93.6880 135° Southeast 484 557 35,000  Level FlightAware
07:02AM 44.6030 -93.6050 134° Southeast 484 557 35,000  Level FlightAware
07:02AM 44.5490 -93.5290 135° Southeast 484 557 35,000  Level FlightAware
07:03AM 44.4930 -93.4490 134° Southeast 484 557 35,000  Level FlightAware
07:04AM 44.4410 -93.3760 135° Southeast 485 558 35,000  Level FlightAware
07:04AM 44.3830 -93.2940 135° Southeast 485 558 35,000  Level FlightAware
07:05AM 44.3270 -93.2150 135° Southeast 484 557 35,000  Level FlightAware
07:05AM 44.2790 -93.1490 135° Southeast 484 557 35,000  Level FlightAware
07:06AM 44.2190 -93.0640 135° Southeast 484 557 35,000  Level FlightAware
07:06AM 44.1610 -92.9840 135° Southeast 484 557 35,000  Level FlightAware
07:07AM 44.1100 -92.9130 135° Southeast 483 556 35,000  Level FlightAware
07:08AM 44.0530 -92.8330 135° Southeast 484 557 35,000  Level FlightAware
07:08AM 43.9930 -92.7510 135° Southeast 483 556 35,000  Level FlightAware
07:09AM 43.9430 -92.6820 135° Southeast 483 556 35,000  Level FlightAware
07:09AM 43.8860 -92.6040 135° Southeast 483 556 35,000  Level FlightAware
07:10AM 43.8280 -92.5250 135° Southeast 483 556 35,000  Level FlightAware
07:11AM 43.7720 -92.4470 135° Southeast 482 555 35,000  Level FlightAware
07:11AM 43.7200 -92.3770 136° Southeast 481 554 35,000  Level FlightAware
07:12AM 43.6680 -92.3060 135° Southeast 480 552 35,000  Level FlightAware
07:12AM 43.6150 -92.2340 135° Southeast 478 550 35,000  Level FlightAware
07:13AM 43.5500 -92.1460 136° Southeast 476 548 35,000  Level FlightAware
07:13AM 43.5000 -92.0790 136° Southeast 475 547 35,000  Level FlightAware
07:14AM 43.4420 -92.0010 136° Southeast 473 544 35,000  Level FlightAware
07:15AM 43.3860 -91.9260 136° Southeast 473 544 35,000  Level FlightAware
07:15AM 43.3360 -91.8590 136° Southeast 473 544 35,000  Level FlightAware
07:16AM 43.2800 -91.7850 136° Southeast 472 543 35,000  Level FlightAware
07:16AM 43.2240 -91.7100 136° Southeast 471 542 35,000  Level FlightAware
07:17AM 43.1830 -91.6220 123° Southeast 456 525 35,000  Level FlightAware
07:18AM 43.1610 -91.5340 109° East 452 520 35,000  Level FlightAware
07:18AM 43.1370 -91.4370 109° East 451 519 35,000  Level FlightAware
07:19AM 43.1120 -91.3390 109° East 450 518 35,000  Level FlightAware
07:19AM 43.0870 -91.2420 109° East 450 518 35,000  Level FlightAware
07:20AM 43.0660 -91.1570 109° East 447 514 35,000  Level FlightAware
07:20AM 43.0420 -91.0600 109° East 447 514 35,000  Level FlightAware
07:21AM 43.0140 -90.9460 109° East 447 514 35,000  Level FlightAware
07:22AM 42.9940 -90.8650 109° East 447 514 35,000  Level FlightAware
07:22AM 42.9680 -90.7610 109° East 447 514 35,000  Level FlightAware
07:23AM 42.9450 -90.6680 109° East 447 514 35,000  Level FlightAware
07:24AM 42.9210 -90.5720 109° East 448 516 35,000  Level FlightAware
07:24AM 42.9010 -90.4930 109° East 448 516 35,000  Level FlightAware
07:25AM 42.8750 -90.3920 109° East 448 516 35,000  Level FlightAware
07:25AM 42.8510 -90.2970 109° East 448 516 35,000  Level FlightAware
07:26AM 42.8260 -90.2000 109° East 449 517 35,000 -360 Level FlightAware
07:26AM 42.8040 -90.1150 109° East 444 511 34,600 -1,020 Descending FlightAware
07:27AM 42.7810 -90.0240 109° East 438 504 33,900 -2,220 Descending FlightAware
07:28AM 42.7560 -89.9260 109° East 440 506 31,900 -3,360 Descending FlightAware
07:28AM 42.7330 -89.8390 110° East 444 511 30,000 -3,480 Descending FlightAware
07:29AM 42.7090 -89.7480 110° East 449 517 28,000 -2,940 Descending FlightAware
07:29AM 42.6850 -89.6550 109° East 441 507 26,500 -2,580 Descending FlightAware
07:30AM 42.6620 -89.5700 110° East 433 498 25,100 -2,700 Descending FlightAware
07:30AM 42.6380 -89.4780 109° East 425 489 23,500 -2,640 Descending FlightAware
07:31AM 42.6140 -89.3860 109° East 416 479 22,000 -2,460 Descending FlightAware
07:32AM 42.5910 -89.2990 110° East 406 467 20,600 -2,340 Descending FlightAware
07:32AM 42.5690 -89.2170 110° East 396 456 19,200 -2,280 Descending FlightAware
07:33AM 42.5500 -89.1440 109° East 388 447 18,100 -2,520 Descending FlightAware
07:33AM 42.5260 -89.0570 110° East 388 447 16,300 -2,640 Descending FlightAware
07:34AM 42.5070 -88.9840 109° East 382 440 15,000 -2,400 Descending FlightAware
07:35AM 42.4860 -88.9070 110° East 373 429 13,600 -2,460 Descending FlightAware
07:35AM 42.4640 -88.8270 110° East 366 421 12,100 -2,400 Descending FlightAware
07:36AM 42.4450 -88.7580 110° East 360 414 10,900 -1,560 Descending FlightAware
07:36AM 42.4240 -88.6810 110° East 334 384 10,300 -840 Descending FlightAware
07:37AM 42.4100 -88.6280 110° East 310 357 10,000 -660 Descending FlightAware
07:37AM 42.4020 -88.5970 109° East 297 342 9,800 -840 Descending FlightAware
07:38AM 42.3890 -88.5520 111° Southeast 283 326 9,400 -1,200 Descending FlightAware
07:38AM 42.3800 -88.5190 110° East 284 327 8,900 -1,080 Descending FlightAware
07:38AM 42.3710 -88.4870 111° Southeast 279 321 8,700 -360 Descending FlightAware
07:38AM 42.3620 -88.4580 113° Southeast 276 318 8,700  Level FlightAware
07:39AM 42.3520 -88.4450 136° Southeast 277 319 8,700  Level FlightAware
07:39AM 42.3450 -88.4390 148° Southeast 276 318 8,700  Level FlightAware
07:39AM 42.3320 -88.4310 156° South 275 316 8,700  Level FlightAware
07:39AM 42.3100 -88.4200 160° South 257 296 8,700 -180 Level FlightAware
07:40AM 42.2950 -88.4150 166° South 253 291 8,600 -900 Descending FlightAware
07:40AM 42.2650 -88.4070 169° South 252 290 8,100 -1,260 Descending FlightAware
07:40AM 42.2420 -88.4020 171° South 251 289 7,700 -1,800 Descending FlightAware
07:41AM 42.2190 -88.3960 169° South 264 304 6,900 -2,100 Descending FlightAware
07:41AM 42.1860 -88.3870 169° South 273 314 6,100 -1,860 Descending FlightAware
07:41AM 42.1620 -88.3810 170° South 276 318 5,500 -1,620 Descending FlightAware
07:42AM 42.1400 -88.3750 169° South 274 315 5,100 -1,320 Descending FlightAware
07:42AM 42.1220 -88.3680 164° South 272 313 4,800 -720 Descending FlightAware
07:42AM 42.0970 -88.3550 159° South 254 292 4,700 -180 Descending FlightAware
07:43AM 42.0710 -88.3420 160° South 235 270 4,700 -180 Level FlightAware
07:43AM 42.0520 -88.3300 155° Southeast 231 266 4,600 -660 Descending FlightAware
07:43AM 42.0460 -88.3220 135° Southeast 228 262 4,400 -1,200 Descending FlightAware
07:43AM 42.0380 -88.3090 130° Southeast 223 257 4,200 -1,140 Descending FlightAware
07:44AM 42.0250 -88.2870 128° Southeast 221 254 3,800 -780 Descending FlightAware
07:44AM 42.0120 -88.2660 130° Southeast 224 258 3,700 -180 Descending FlightAware
07:44AM 41.9960 -88.2380 128° Southeast 225 259 3,700  Level FlightAware
07:45AM 41.9830 -88.2170 130° Southeast 219 252 3,700 120 Level FlightAware
07:45AM 41.9730 -88.1960 123° Southeast 216 249 3,800  Climbing FlightAware
07:45AM 41.9680 -88.1770 109° East 216 249 3,700 -300 Descending FlightAware
07:45AM 41.9680 -88.1670 90° East 214 246 3,700 -840 Level FlightAware
07:46AM 41.9680 -88.1310 90° East 198 228 3,200 -1,080 Descending FlightAware
07:46AM 41.9680 -88.1090 90° East 186 214 2,900 -1,020 Descending FlightAware
07:47AM 41.9690 -88.0830 87° East 182 209 2,500 -960 Descending FlightAware
07:47AM 41.9690 -88.0510 90° East 178 205 2,100 -960 Descending FlightAware
07:47AM 41.9690 -88.0350 90° East 163 188 1,800 -900 Descending FlightAware
07:48AM 41.9690 -88.0110 90° East 150 173 1,500 -840 Descending FlightAware
07:48AM 41.9690 -87.9910 90° East 149 171 1,200 -780 Descending FlightAware
07:49AM 41.9690 -87.9520 90° East 146 168 700 -780 Descending FlightAware
07:49AM 41.9690 -87.9320 90° East 148 170 400 -420 Descending FlightAware
07:50AM 41.9690 -87.9030 90° East 148 170 300 -180 Descending FlightAware